Taisho Maru — JI3307 — position and weather

sailwx.info

Track history (hours):
 
Tides and Currents Weather Stations Pressure Air Temp Water Temp Dewpoint Dewpoint Depression Visibility Wind Speed Wind Dir Waves Ship Positions

Taisho Maru

Last reported at 2014-Aug-30 23:32 UTC. Time now 2014-Aug-31 00:31 UTC.
Position N 35°29' E 139°40'.

Length 93 m; draft 7.3 m.

Type: Cargo ship. MMSI: 431300084.

Date/timePositionNaut miles runAvg speedWind from/ knotsBaromVisibWave heightAir tempDewpointWater temp
2014-Aug-30 23:32N 35°29' E 139°40'2 2.2
2014-Aug-30 22:33N 35°27' E 139°41'1 1.2
2014-Aug-30 21:33N 35°26' E 139°42'0 0.0
2014-Aug-30 20:33N 35°26' E 139°42'0 0.0
2014-Aug-30 19:33N 35°26' E 139°42'7 7.2
2014-Aug-30 18:33N 35°19' E 139°44'1111.1
2014-Aug-30 17:33N 35°08' E 139°45'2912.4
2014-Aug-30 15:14N 34°49' E 139°19'  
2014-Aug-28 04:14N 34°37' E 138°21'1614.9
2014-Aug-28 03:09N 34°52' E 138°29'1014.5
2014-Aug-28 02:26N 35°01' E 138°33'3 0.5
2014-Aug-27 21:18N 35°01' E 138°30'17 7.9
2014-Aug-27 19:12N 34°44' E 138°32'43 9.2
2014-Aug-27 14:33N 34°55' E 139°23'1313.0
2014-Aug-27 13:33N 35°03' E 139°36'1413.9
2014-Aug-27 12:33N 35°13' E 139°47'1211.6
2014-Aug-27 11:34N 35°25' E 139°43'1414.1
2014-Aug-27 10:33N 35°34' E 139°57'7 6.8
2014-Aug-27 09:33N 35°40' E 140°00'0 0.0
2014-Aug-27 08:33N 35°40' E 140°00'0 0.0
2014-Aug-27 07:33N 35°40' E 140°00'0 0.0
2014-Aug-27 06:30N 35°40' E 140°00'0 0.0
2014-Aug-27 05:33N 35°40' E 140°00'2 1.7
2014-Aug-27 04:33N 35°38' E 139°59'3 2.9
2014-Aug-27 03:33N 35°36' E 139°60'0 0.0
2014-Aug-27 02:21N 35°35' E 139°60'0 0.0
2014-Aug-27 01:30N 35°35' E 139°60'0 0.0
2014-Aug-27 00:33N 35°35' E 139°60'0 0.0
2014-Aug-26 23:33N 35°35' E 139°60'0 0.0
2014-Aug-26 22:27N 35°35' E 139°60'0 0.0
2014-Aug-26 21:33N 35°36' E 139°60'0 0.0
2014-Aug-26 20:33N 35°36' E 139°60'0 0.0
2014-Aug-26 19:33N 35°36' E 139°60'0 0.0
2014-Aug-26 18:27N 35°36' E 139°60'0 0.0
2014-Aug-26 17:33N 35°36' E 139°60'0 0.0
2014-Aug-26 16:27N 35°35' E 139°60'0 0.0
2014-Aug-26 15:33N 35°36' E 139°60'0 0.0
2014-Aug-26 14:30N 35°36' E 139°60'0 0.0
2014-Aug-26 13:33N 35°36' E 139°60'0 0.0
2014-Aug-26 12:33N 35°36' E 139°60'0 0.0
2014-Aug-26 11:33N 35°36' E 139°60'0 0.0
2014-Aug-26 10:33N 35°36' E 139°60'0 0.0
2014-Aug-26 09:27N 35°36' E 139°60'0 0.1
2014-Aug-26 08:33N 35°36' E 139°60'0 0.1
2014-Aug-26 07:33N 35°36' E 139°60'0 0.1
2014-Aug-26 06:33N 35°36' E 139°60'0 0.0
2014-Aug-26 05:33N 35°36' E 139°60'0 0.0
2014-Aug-26 04:27N 35°36' E 139°60'0 0.0
2014-Aug-26 03:27N 35°36' E 139°60'0 0.0
2014-Aug-26 02:27N 35°36' E 139°60'0 0.0
2014-Aug-26 01:33N 35°36' E 139°60'0 0.0
2014-Aug-26 00:33N 35°36' E 139°60'0 0.5
2014-Aug-25 23:33N 35°35' E 139°59'1111.5
2014-Aug-25 22:33N 35°27' E 139°50'1010.4
2014-Aug-25 21:33N 35°17' E 139°46'1111.3
2014-Aug-25 20:33N 35°06' E 139°45'1613.5
2014-Aug-25 19:21N 34°56' E 139°29'1314.8
2014-Aug-25 18:29N 34°48' E 139°17'3812.5
2014-Aug-25 15:25N 34°31' E 138°35'181 4.1
2014-Aug-23 19:15N 33°57' E 134°60'48 3.1
2014-Aug-23 03:29N 34°40' E 135°27'0 0.0
2014-Aug-23 02:29N 34°40' E 135°27'0 0.0
2014-Aug-23 01:30N 34°40' E 135°27'2 2.3
2014-Aug-23 00:33N 34°39' E 135°25'5 5.4
2014-Aug-22 23:33N 34°36' E 135°19'0 0.0
2014-Aug-22 22:29N 34°36' E 135°19'0 0.0
2014-Aug-22 21:23N 34°36' E 135°19'0 0.0
2014-Aug-22 20:29N 34°36' E 135°19'0 0.0
2014-Aug-22 19:23N 34°36' E 135°19'0 0.0
2014-Aug-22 18:17N 34°36' E 135°19'0 0.1
2014-Aug-22 17:29N 34°36' E 135°19'0 0.0
2014-Aug-22 16:23N 34°36' E 135°19'0 0.0
2014-Aug-22 15:29N 34°36' E 135°19'0 0.1
2014-Aug-22 14:23N 34°36' E 135°19'0 0.1
2014-Aug-22 13:23N 34°36' E 135°19'5 6.1
2014-Aug-22 12:33N 34°32' E 135°15'1413.9
2014-Aug-22 11:33N 34°22' E 135°04'1313.3
2014-Aug-22 10:33N 34°09' E 134°60'  
Track history (hours):
 
Tides and Currents Weather Stations Pressure Air Temp Water Temp Dewpoint Dewpoint Depression Visibility Wind Speed Wind Dir Waves Ship Positions

Taisho Maru

Last reported at 2014-Aug-30 23:32 UTC. Time now 2014-Aug-31 00:31 UTC.
Position N 35°29' E 139°40'.

Length 93 m; draft 7.3 m.

Type: Cargo ship. MMSI: 431300084.

Date/timePositionNaut miles runAvg speedWind from/ knotsBaromVisibWave heightAir tempDewpointWater temp
2014-Aug-30 23:32N 35°29' E 139°40'2 2.2
2014-Aug-30 22:33N 35°27' E 139°41'1 1.2
2014-Aug-30 21:33N 35°26' E 139°42'0 0.0
2014-Aug-30 20:33N 35°26' E 139°42'0 0.0
2014-Aug-30 19:33N 35°26' E 139°42'7 7.2
2014-Aug-30 18:33N 35°19' E 139°44'1111.1
2014-Aug-30 17:33N 35°08' E 139°45'2912.4
2014-Aug-30 15:14N 34°49' E 139°19'  
2014-Aug-28 04:14N 34°37' E 138°21'1614.9
2014-Aug-28 03:09N 34°52' E 138°29'1014.5
2014-Aug-28 02:26N 35°01' E 138°33'3 0.5
2014-Aug-27 21:18N 35°01' E 138°30'17 7.9
2014-Aug-27 19:12N 34°44' E 138°32'43 9.2
2014-Aug-27 14:33N 34°55' E 139°23'1313.0
2014-Aug-27 13:33N 35°03' E 139°36'1413.9
2014-Aug-27 12:33N 35°13' E 139°47'1211.6
2014-Aug-27 11:34N 35°25' E 139°43'1414.1
2014-Aug-27 10:33N 35°34' E 139°57'7 6.8
2014-Aug-27 09:33N 35°40' E 140°00'0 0.0
2014-Aug-27 08:33N 35°40' E 140°00'0 0.0
2014-Aug-27 07:33N 35°40' E 140°00'0 0.0
2014-Aug-27 06:30N 35°40' E 140°00'0 0.0
2014-Aug-27 05:33N 35°40' E 140°00'2 1.7
2014-Aug-27 04:33N 35°38' E 139°59'3 2.9
2014-Aug-27 03:33N 35°36' E 139°60'0 0.0
2014-Aug-27 02:21N 35°35' E 139°60'0 0.0
2014-Aug-27 01:30N 35°35' E 139°60'0 0.0
2014-Aug-27 00:33N 35°35' E 139°60'0 0.0
2014-Aug-26 23:33N 35°35' E 139°60'0 0.0
2014-Aug-26 22:27N 35°35' E 139°60'0 0.0
2014-Aug-26 21:33N 35°36' E 139°60'0 0.0
2014-Aug-26 20:33N 35°36' E 139°60'0 0.0
2014-Aug-26 19:33N 35°36' E 139°60'0 0.0
2014-Aug-26 18:27N 35°36' E 139°60'0 0.0
2014-Aug-26 17:33N 35°36' E 139°60'0 0.0
2014-Aug-26 16:27N 35°35' E 139°60'0 0.0
2014-Aug-26 15:33N 35°36' E 139°60'0 0.0
2014-Aug-26 14:30N 35°36' E 139°60'0 0.0
2014-Aug-26 13:33N 35°36' E 139°60'0 0.0
2014-Aug-26 12:33N 35°36' E 139°60'0 0.0
2014-Aug-26 11:33N 35°36' E 139°60'0 0.0
2014-Aug-26 10:33N 35°36' E 139°60'0 0.0
2014-Aug-26 09:27N 35°36' E 139°60'0 0.1
2014-Aug-26 08:33N 35°36' E 139°60'0 0.1
2014-Aug-26 07:33N 35°36' E 139°60'0 0.1
2014-Aug-26 06:33N 35°36' E 139°60'0 0.0
2014-Aug-26 05:33N 35°36' E 139°60'0 0.0
2014-Aug-26 04:27N 35°36' E 139°60'0 0.0
2014-Aug-26 03:27N 35°36' E 139°60'0 0.0
2014-Aug-26 02:27N 35°36' E 139°60'0 0.0
2014-Aug-26 01:33N 35°36' E 139°60'0 0.0
2014-Aug-26 00:33N 35°36' E 139°60'0 0.5
2014-Aug-25 23:33N 35°35' E 139°59'1111.5
2014-Aug-25 22:33N 35°27' E 139°50'1010.4
2014-Aug-25 21:33N 35°17' E 139°46'1111.3
2014-Aug-25 20:33N 35°06' E 139°45'1613.5
2014-Aug-25 19:21N 34°56' E 139°29'1314.8
2014-Aug-25 18:29N 34°48' E 139°17'3812.5
2014-Aug-25 15:25N 34°31' E 138°35'181 4.1
2014-Aug-23 19:15N 33°57' E 134°60'48 3.1
2014-Aug-23 03:29N 34°40' E 135°27'0 0.0
2014-Aug-23 02:29N 34°40' E 135°27'0 0.0
2014-Aug-23 01:30N 34°40' E 135°27'2 2.3
2014-Aug-23 00:33N 34°39' E 135°25'5 5.4
2014-Aug-22 23:33N 34°36' E 135°19'0 0.0
2014-Aug-22 22:29N 34°36' E 135°19'0 0.0
2014-Aug-22 21:23N 34°36' E 135°19'0 0.0
2014-Aug-22 20:29N 34°36' E 135°19'0 0.0
2014-Aug-22 19:23N 34°36' E 135°19'0 0.0
2014-Aug-22 18:17N 34°36' E 135°19'0 0.1
2014-Aug-22 17:29N 34°36' E 135°19'0 0.0
2014-Aug-22 16:23N 34°36' E 135°19'0 0.0
2014-Aug-22 15:29N 34°36' E 135°19'0 0.1
2014-Aug-22 14:23N 34°36' E 135°19'0 0.1
2014-Aug-22 13:23N 34°36' E 135°19'5 6.1
2014-Aug-22 12:33N 34°32' E 135°15'1413.9
2014-Aug-22 11:33N 34°22' E 135°04'1313.3
2014-Aug-22 10:33N 34°09' E 134°60'  

Dump ship's entire track history